createdAt,value
2023-02-23T00:00:33.221Z,16.23
2023-02-23T00:03:01.737Z,16.37
2023-02-23T00:05:30.387Z,16.60
2023-02-23T00:07:57.866Z,15.30
2023-02-23T00:10:30.315Z,15.00
2023-02-23T00:13:00.998Z,18.33
2023-02-23T00:15:29.770Z,16.40
2023-02-23T00:17:57.663Z,14.30
2023-02-23T00:20:27.231Z,14.83
2023-02-23T00:22:55.145Z,17.30
2023-02-23T00:25:22.418Z,18.03
2023-02-23T00:27:52.391Z,16.03
2023-02-23T00:30:20.017Z,18.50
2023-02-23T00:32:47.176Z,17.30
2023-02-23T00:35:17.383Z,16.77
2023-02-23T00:37:48.489Z,18.00
2023-02-23T00:40:17.028Z,18.23
2023-02-23T00:42:49.344Z,16.90
2023-02-23T00:45:16.490Z,17.60
2023-02-23T00:47:44.968Z,18.67
2023-02-23T00:50:14.789Z,19.37
2023-02-23T00:52:45.178Z,19.27
2023-02-23T00:55:13.575Z,18.07
2023-02-23T00:57:41.116Z,19.30
2023-02-23T01:00:20.891Z,18.97
2023-02-23T01:02:51.200Z,17.67
2023-02-23T01:05:18.282Z,17.70
2023-02-23T01:07:46.447Z,18.00
2023-02-23T01:10:19.936Z,16.73
2023-02-23T01:12:48.321Z,19.57
2023-02-23T01:15:15.666Z,17.23
2023-02-23T01:17:43.013Z,16.80
2023-02-23T01:20:17.358Z,16.97
2023-02-23T01:22:48.816Z,17.40
2023-02-23T01:25:16.566Z,17.20
2023-02-23T01:27:43.758Z,16.40
2023-02-23T01:30:12.382Z,19.13
2023-02-23T01:32:39.593Z,17.57
2023-02-23T01:35:08.056Z,17.93
2023-02-23T01:37:35.704Z,19.27
2023-02-23T01:40:10.384Z,16.50
2023-02-23T01:42:38.608Z,17.60
2023-02-23T01:45:18.066Z,21.03
2023-02-23T01:47:45.062Z,18.50
2023-02-23T01:50:12.099Z,18.33
2023-02-23T01:52:39.792Z,19.33
2023-02-23T01:55:12.868Z,19.63
2023-02-23T01:57:41.553Z,18.60
2023-02-23T02:00:13.982Z,20.43
2023-02-23T02:02:42.577Z,18.60
2023-02-23T02:05:13.924Z,20.17
2023-02-23T02:07:44.738Z,19.30
2023-02-23T02:10:12.018Z,20.03
2023-02-23T02:12:39.535Z,18.73
2023-02-23T02:15:08.386Z,19.00
2023-02-23T02:17:54.243Z,18.97
2023-02-23T02:20:42.685Z,17.83
2023-02-23T02:23:22.200Z,19.40
2023-02-23T02:25:56.797Z,19.93
2023-02-23T02:28:23.784Z,20.57
2023-02-23T02:31:09.727Z,17.70
2023-02-23T02:33:37.847Z,18.83
2023-02-23T02:36:17.764Z,19.33
2023-02-23T02:38:53.439Z,20.20
2023-02-23T02:41:27.052Z,17.70
2023-02-23T02:44:26.566Z,18.13
2023-02-23T02:46:57.393Z,16.40
2023-02-23T02:49:32.703Z,18.97
2023-02-23T02:52:05.656Z,17.70
2023-02-23T02:54:36.393Z,17.33
2023-02-23T02:57:04.354Z,17.67
2023-02-23T02:59:50.561Z,17.87
2023-02-23T03:02:37.586Z,18.97
2023-02-23T03:05:36.871Z,17.20
2023-02-23T03:08:46.355Z,19.27
2023-02-23T03:11:33.291Z,20.77
2023-02-23T03:14:45.198Z,17.43
2023-02-23T03:17:47.002Z,17.37
2023-02-23T03:20:51.595Z,18.13
2023-02-23T03:24:03.210Z,17.90
2023-02-23T03:26:49.196Z,20.00
2023-02-23T03:29:49.892Z,17.67
2023-02-23T03:32:44.183Z,16.57
2023-02-23T03:35:35.852Z,16.37
2023-02-23T03:38:43.776Z,16.00
2023-02-23T03:41:30.708Z,17.30
2023-02-23T03:44:18.781Z,17.40
2023-02-23T03:47:05.925Z,19.10
2023-02-23T03:49:55.996Z,17.00
2023-02-23T03:52:45.480Z,18.57
2023-02-23T03:55:39.183Z,16.90
2023-02-23T03:58:28.490Z,17.40
2023-02-23T04:01:16.103Z,17.83
2023-02-23T04:04:03.855Z,17.67
2023-02-23T04:06:52.423Z,19.50
2023-02-23T04:09:38.443Z,16.87
2023-02-23T04:12:28.963Z,17.60
2023-02-23T04:15:02.344Z,16.40
2023-02-23T04:17:29.990Z,18.13
2023-02-23T04:19:57.095Z,18.03
2023-02-23T04:22:24.857Z,18.30
2023-02-23T04:24:51.869Z,17.70
2023-02-23T04:27:19.255Z,18.20
2023-02-23T04:29:46.598Z,19.10
2023-02-23T04:32:15.470Z,16.83
2023-02-23T04:34:43.123Z,19.57
2023-02-23T04:37:10.305Z,16.70
2023-02-23T04:39:37.487Z,19.10
2023-02-23T04:42:04.623Z,17.43
2023-02-23T04:44:31.746Z,19.20
2023-02-23T04:46:58.875Z,18.00
2023-02-23T04:49:25.917Z,16.37
2023-02-23T04:51:53.026Z,18.37
2023-02-23T04:54:20.094Z,17.53
2023-02-23T04:56:47.141Z,17.63
2023-02-23T04:59:14.228Z,17.57
2023-02-23T05:01:41.297Z,19.97
2023-02-23T05:04:08.404Z,18.00
2023-02-23T05:06:35.460Z,17.33
2023-02-23T05:09:03.394Z,17.50
2023-02-23T05:11:30.683Z,19.27
2023-02-23T05:13:57.720Z,19.20
2023-02-23T05:16:24.848Z,17.70
2023-02-23T05:18:52.078Z,16.87
2023-02-23T05:21:19.346Z,19.83
2023-02-23T05:23:47.136Z,16.47
2023-02-23T05:26:14.573Z,16.80
2023-02-23T05:28:42.251Z,16.70
2023-02-23T05:31:09.985Z,16.73
2023-02-23T05:33:42.615Z,17.33
2023-02-23T05:36:13.677Z,16.27
2023-02-23T05:38:41.245Z,19.83
2023-02-23T05:41:09.630Z,20.67
2023-02-23T05:43:36.885Z,18.73
2023-02-23T05:46:10.776Z,18.20
2023-02-23T05:48:38.334Z,17.70
2023-02-23T05:51:07.409Z,19.00
2023-02-23T05:53:34.792Z,19.13
2023-02-23T05:56:02.810Z,18.53
2023-02-23T05:58:30.439Z,17.27
2023-02-23T06:00:57.735Z,18.17
2023-02-23T06:03:24.816Z,16.20
2023-02-23T06:05:53.461Z,18.57
2023-02-23T06:08:20.829Z,18.13
2023-02-23T06:10:48.230Z,18.43
2023-02-23T06:13:15.322Z,17.13
2023-02-23T06:15:42.444Z,19.00
2023-02-23T06:18:09.654Z,17.93
2023-02-23T06:20:38.184Z,17.93
2023-02-23T06:23:07.490Z,17.13
2023-02-23T06:25:34.875Z,18.60
2023-02-23T06:28:02.938Z,17.47
2023-02-23T06:30:30.074Z,17.97
2023-02-23T06:32:57.129Z,17.27
2023-02-23T06:35:24.230Z,16.57
2023-02-23T06:37:51.262Z,17.33
2023-02-23T06:40:18.474Z,18.10
2023-02-23T06:42:45.626Z,18.10
2023-02-23T06:45:13.320Z,18.90
2023-02-23T06:47:41.017Z,15.93
2023-02-23T06:50:08.670Z,17.43
2023-02-23T06:52:37.949Z,16.93
2023-02-23T06:55:05.381Z,19.43
2023-02-23T06:57:32.685Z,17.40
2023-02-23T07:00:01.593Z,19.67
2023-02-23T07:02:28.762Z,18.50
2023-02-23T07:04:55.788Z,19.97
2023-02-23T07:07:23.554Z,19.90
2023-02-23T07:09:50.624Z,19.40
2023-02-23T07:12:17.805Z,20.00
2023-02-23T07:14:44.833Z,20.30
2023-02-23T07:17:12.720Z,18.83
2023-02-23T07:19:39.934Z,21.30
2023-02-23T07:22:06.960Z,22.97
2023-02-23T07:24:34.008Z,24.73
2023-02-23T07:27:01.071Z,24.80
2023-02-23T07:29:28.225Z,27.80
2023-02-23T07:31:55.488Z,32.43
2023-02-23T07:34:22.742Z,32.67
2023-02-23T07:36:49.791Z,30.97
2023-02-23T07:39:16.879Z,32.27
2023-02-23T07:41:43.927Z,33.47
2023-02-23T07:44:11.117Z,33.83
2023-02-23T07:46:39.190Z,34.83
2023-02-23T07:49:06.226Z,34.70
2023-02-23T07:51:33.350Z,32.47
2023-02-23T07:54:04.631Z,34.83
2023-02-23T07:56:31.726Z,35.73
2023-02-23T07:58:58.801Z,35.40
2023-02-23T08:01:26.105Z,37.37
2023-02-23T08:03:53.270Z,35.90
2023-02-23T08:06:20.954Z,45.40
2023-02-23T08:08:48.227Z,34.70
2023-02-23T08:11:17.569Z,36.40
2023-02-23T08:13:44.717Z,33.40
2023-02-23T08:16:12.501Z,36.10
2023-02-23T08:18:39.731Z,33.93
2023-02-23T08:21:07.634Z,33.20
2023-02-23T08:23:34.766Z,33.27
2023-02-23T08:26:02.138Z,32.13
2023-02-23T08:28:30.802Z,35.10
2023-02-23T08:30:59.321Z,38.60
2023-02-23T08:33:26.466Z,35.97
2023-02-23T08:35:54.592Z,36.07
2023-02-23T08:38:22.728Z,34.73
2023-02-23T08:40:50.934Z,34.83
2023-02-23T08:43:17.984Z,37.60
2023-02-23T08:45:44.979Z,38.37
2023-02-23T08:48:12.117Z,34.87
2023-02-23T08:50:39.140Z,36.00
2023-02-23T08:53:07.104Z,37.13
2023-02-23T08:55:38.146Z,37.53
2023-02-23T08:58:06.600Z,39.30
2023-02-23T09:00:33.610Z,38.40
2023-02-23T09:03:00.665Z,38.80
2023-02-23T09:05:27.713Z,40.60
2023-02-23T09:07:54.776Z,38.50
2023-02-23T09:10:24.835Z,37.40
2023-02-23T09:12:51.917Z,38.73
2023-02-23T09:15:18.958Z,39.00
2023-02-23T09:17:47.236Z,38.77
2023-02-23T09:20:15.845Z,38.77
2023-02-23T09:22:48.712Z,37.50
2023-02-23T09:25:23.195Z,36.60
2023-02-23T09:27:51.130Z,37.20
2023-02-23T09:30:20.498Z,40.77
2023-02-23T09:32:48.063Z,36.60
2023-02-23T09:35:18.954Z,37.63
2023-02-23T09:37:54.815Z,38.37
2023-02-23T09:40:26.231Z,36.20
2023-02-23T09:43:11.678Z,35.37
2023-02-23T09:45:39.095Z,36.37
2023-02-23T09:48:16.422Z,35.60
2023-02-23T09:50:44.901Z,35.60
2023-02-23T09:53:22.171Z,33.47
2023-02-23T09:55:50.937Z,36.23
2023-02-23T09:58:29.000Z,33.73
2023-02-23T10:01:02.129Z,33.23
2023-02-23T10:03:34.358Z,30.10
2023-02-23T10:06:03.645Z,31.40
2023-02-23T10:08:39.996Z,29.20
2023-02-23T10:11:11.279Z,30.50
2023-02-23T10:13:57.436Z,29.20
2023-02-23T10:16:27.512Z,30.77
2023-02-23T10:19:07.265Z,29.20
2023-02-23T10:21:36.556Z,26.83
2023-02-23T10:24:11.065Z,27.27
2023-02-23T10:26:54.074Z,27.07
2023-02-23T10:29:29.882Z,25.77
2023-02-23T10:32:00.543Z,24.63
2023-02-23T10:34:29.187Z,22.43
2023-02-23T10:37:03.939Z,22.63
2023-02-23T10:39:31.639Z,22.80
2023-02-23T10:42:05.346Z,20.73
2023-02-23T10:44:32.557Z,19.70
2023-02-23T10:47:01.351Z,21.50
2023-02-23T10:49:41.588Z,20.83
2023-02-23T10:52:13.436Z,19.03
2023-02-23T10:54:45.627Z,19.20
2023-02-23T10:57:14.348Z,17.70
2023-02-23T10:59:59.767Z,19.27
2023-02-23T11:02:27.693Z,21.60
2023-02-23T11:04:56.908Z,20.90
2023-02-23T11:07:24.428Z,21.47
2023-02-23T11:09:52.750Z,19.70
2023-02-23T11:12:26.396Z,21.77
2023-02-23T11:14:54.600Z,21.77
2023-02-23T11:17:26.796Z,18.97
2023-02-23T11:19:58.626Z,18.83
2023-02-23T11:22:26.859Z,18.50
2023-02-23T11:24:55.473Z,17.87
2023-02-23T11:27:24.580Z,18.83
2023-02-23T11:29:53.991Z,19.50
2023-02-23T11:32:28.463Z,20.13
2023-02-23T11:35:15.096Z,18.83
2023-02-23T11:37:42.130Z,19.30
2023-02-23T11:40:24.537Z,18.27
2023-02-23T11:42:56.188Z,18.20
2023-02-23T11:45:24.858Z,22.10
2023-02-23T11:48:02.189Z,25.57
2023-02-23T11:50:30.468Z,24.53
2023-02-23T11:53:00.950Z,25.60
2023-02-23T11:55:29.459Z,26.03
2023-02-23T11:58:08.574Z,29.60
2023-02-23T12:00:35.746Z,27.77
2023-02-23T12:03:03.765Z,30.17
2023-02-23T12:05:31.824Z,27.43
2023-02-23T12:08:07.509Z,27.73
2023-02-23T12:10:44.793Z,27.60
2023-02-23T12:13:33.447Z,28.77
2023-02-23T12:16:05.242Z,27.20
2023-02-23T12:18:43.301Z,28.40
2023-02-23T12:21:30.244Z,29.70
2023-02-23T12:24:19.578Z,29.20
2023-02-23T12:26:50.780Z,26.87
2023-02-23T12:29:31.610Z,29.60
2023-02-23T12:32:02.957Z,30.50
2023-02-23T12:34:37.792Z,27.43
2023-02-23T12:37:13.537Z,28.60
2023-02-23T12:39:42.561Z,25.73
2023-02-23T12:42:20.384Z,27.90
2023-02-23T12:44:50.901Z,28.33
2023-02-23T12:47:25.106Z,26.70
2023-02-23T12:49:57.267Z,26.77
2023-02-23T12:52:30.259Z,26.60
2023-02-23T12:54:57.718Z,25.03
2023-02-23T12:57:30.938Z,23.37
2023-02-23T12:59:58.177Z,25.37
2023-02-23T13:02:25.612Z,23.43
2023-02-23T13:05:06.948Z,22.10
2023-02-23T13:07:47.629Z,23.37
2023-02-23T13:10:14.743Z,23.30
2023-02-23T13:13:05.513Z,28.27
2023-02-23T13:15:44.715Z,24.47
2023-02-23T13:18:13.377Z,26.07
2023-02-23T13:20:58.150Z,28.37
2023-02-23T13:23:34.467Z,25.00
2023-02-23T13:26:04.354Z,25.57
2023-02-23T13:28:34.379Z,27.27
2023-02-23T13:31:02.967Z,25.67
2023-02-23T13:33:43.537Z,25.73
2023-02-23T13:36:12.787Z,25.57
2023-02-23T13:38:47.574Z,24.60
2023-02-23T13:41:25.018Z,24.43
2023-02-23T13:44:11.151Z,22.70
2023-02-23T13:46:58.433Z,22.90
2023-02-23T13:49:41.901Z,22.23
2023-02-23T13:52:12.098Z,19.40
2023-02-23T13:54:39.469Z,18.37
2023-02-23T13:57:16.471Z,19.87
2023-02-23T13:59:45.369Z,19.63
2023-02-23T14:02:23.722Z,18.30
2023-02-23T14:04:51.261Z,16.93
2023-02-23T14:07:22.106Z,17.47
2023-02-23T14:09:56.201Z,17.50
2023-02-23T14:12:25.570Z,15.80
2023-02-23T14:14:52.739Z,17.00
2023-02-23T14:17:19.861Z,16.20
2023-02-23T14:20:06.828Z,17.20
2023-02-23T14:22:34.917Z,18.70
2023-02-23T14:25:20.642Z,14.90
2023-02-23T14:27:47.691Z,17.53
2023-02-23T14:30:16.532Z,17.90
2023-02-23T14:32:45.376Z,17.53
2023-02-23T14:35:31.348Z,19.20
2023-02-23T14:38:12.174Z,17.83
2023-02-23T14:40:40.782Z,17.83
2023-02-23T14:43:46.540Z,18.17
2023-02-23T14:46:17.907Z,16.30
2023-02-23T14:48:45.767Z,16.10
2023-02-23T14:51:21.910Z,17.30
2023-02-23T14:53:53.504Z,17.90
2023-02-23T14:56:26.161Z,18.47
2023-02-23T14:58:59.270Z,18.23
2023-02-23T15:01:37.090Z,18.70
2023-02-23T15:04:10.545Z,18.90
2023-02-23T15:06:38.200Z,21.37
2023-02-23T15:09:05.560Z,20.40
2023-02-23T15:11:32.666Z,18.50
2023-02-23T15:14:00.075Z,18.83
2023-02-23T15:16:35.238Z,19.47
2023-02-23T15:19:30.266Z,20.60
2023-02-23T15:21:58.823Z,20.37
2023-02-23T15:24:27.928Z,21.90
2023-02-23T15:26:56.189Z,22.40
2023-02-23T15:29:30.685Z,23.80
2023-02-23T15:32:11.044Z,25.13
2023-02-23T15:34:38.306Z,24.73
2023-02-23T15:37:07.810Z,22.67
2023-02-23T15:39:39.986Z,22.23
2023-02-23T15:42:08.213Z,21.03
2023-02-23T15:44:44.205Z,23.30
2023-02-23T15:47:19.698Z,24.17
2023-02-23T15:49:47.191Z,24.67
2023-02-23T15:52:16.349Z,22.07
2023-02-23T15:54:46.387Z,22.20
2023-02-23T15:57:22.644Z,22.00
2023-02-23T15:59:50.265Z,22.50
2023-02-23T16:02:19.404Z,23.00
2023-02-23T16:04:52.661Z,24.37
2023-02-23T16:07:27.557Z,24.83
2023-02-23T16:09:54.682Z,25.37
2023-02-23T16:12:24.155Z,24.17
2023-02-23T16:14:55.116Z,26.20
2023-02-23T16:17:26.591Z,23.77
2023-02-23T16:19:58.414Z,25.50
2023-02-23T16:22:27.576Z,27.90
2023-02-23T16:24:58.562Z,23.50
2023-02-23T16:27:27.400Z,24.30
2023-02-23T16:30:05.924Z,24.77
2023-02-23T16:32:35.192Z,23.73
2023-02-23T16:35:03.961Z,24.43
2023-02-23T16:37:31.115Z,25.70
2023-02-23T16:39:58.474Z,20.23
2023-02-23T16:42:30.910Z,22.23
2023-02-23T16:44:58.360Z,23.03
2023-02-23T16:47:25.357Z,27.27
2023-02-23T16:49:52.600Z,26.70
2023-02-23T16:52:22.767Z,22.87
2023-02-23T16:54:54.522Z,22.97
2023-02-23T16:57:26.137Z,23.47
2023-02-23T16:59:54.193Z,23.33
2023-02-23T17:02:24.462Z,23.63
2023-02-23T17:04:52.658Z,25.77
2023-02-23T17:07:22.991Z,25.40
2023-02-23T17:09:51.056Z,22.27
2023-02-23T17:12:19.971Z,26.03
2023-02-23T17:14:47.066Z,22.90
2023-02-23T17:17:19.901Z,23.97
2023-02-23T17:19:46.959Z,24.37
2023-02-23T17:22:14.345Z,24.30
2023-02-23T17:24:41.856Z,24.93
2023-02-23T17:27:09.325Z,25.50
2023-02-23T17:29:36.390Z,26.77
2023-02-23T17:32:03.829Z,26.57
2023-02-23T17:34:31.308Z,25.30
2023-02-23T17:36:58.383Z,35.20
2023-02-23T17:39:27.976Z,33.23
2023-02-23T17:41:55.683Z,24.03
2023-02-23T17:44:23.045Z,27.90
2023-02-23T17:46:51.680Z,24.03
2023-02-23T17:49:18.733Z,20.60
2023-02-23T17:51:45.755Z,23.20
2023-02-23T17:54:13.573Z,23.73
2023-02-23T17:56:40.711Z,24.07
2023-02-23T17:59:07.774Z,23.10
2023-02-23T18:01:34.911Z,25.00
2023-02-23T18:04:02.218Z,27.87
2023-02-23T18:06:30.510Z,25.30
2023-02-23T18:08:57.665Z,25.83
2023-02-23T18:11:24.999Z,25.53
2023-02-23T18:13:52.311Z,27.40
2023-02-23T18:16:19.928Z,40.30
2023-02-23T18:18:48.810Z,30.73
2023-02-23T18:21:20.406Z,29.87
2023-02-23T18:23:47.613Z,25.43
2023-02-23T18:26:19.131Z,26.00
2023-02-23T18:28:46.303Z,26.10
2023-02-23T18:31:17.508Z,26.27
2023-02-23T18:33:44.844Z,26.87
2023-02-23T18:36:19.250Z,27.00
2023-02-23T18:38:46.379Z,28.00
2023-02-23T18:41:13.620Z,26.07
2023-02-23T18:43:40.928Z,27.27
2023-02-23T18:46:09.522Z,28.67
2023-02-23T18:48:38.843Z,28.40
2023-02-23T18:51:07.052Z,27.63
2023-02-23T18:53:37.257Z,28.17
2023-02-23T18:56:08.724Z,28.67
2023-02-23T18:58:35.867Z,26.80
2023-02-23T19:01:03.204Z,29.80
2023-02-23T19:03:30.337Z,28.80
2023-02-23T19:05:58.916Z,27.50
2023-02-23T19:08:26.051Z,26.63
2023-02-23T19:10:53.341Z,26.87
2023-02-23T19:13:22.112Z,26.60
2023-02-23T19:15:49.845Z,28.20
2023-02-23T19:18:17.063Z,25.90
2023-02-23T19:20:44.137Z,27.63
2023-02-23T19:23:13.077Z,28.90
2023-02-23T19:25:40.417Z,25.97
2023-02-23T19:28:09.293Z,27.30
2023-02-23T19:30:36.685Z,24.50
2023-02-23T19:33:03.946Z,25.13
2023-02-23T19:35:31.149Z,23.90
2023-02-23T19:37:58.873Z,23.97
2023-02-23T19:40:28.929Z,24.43
2023-02-23T19:42:55.957Z,24.23
2023-02-23T19:45:24.803Z,25.20
2023-02-23T19:47:52.981Z,23.63
2023-02-23T19:50:20.822Z,26.10
2023-02-23T19:52:48.474Z,21.97
2023-02-23T19:55:15.970Z,25.53
2023-02-23T19:57:43.107Z,25.23
2023-02-23T20:00:11.513Z,24.00
2023-02-23T20:02:42.547Z,24.20
2023-02-23T20:05:10.719Z,26.33
2023-02-23T20:07:37.780Z,23.57
2023-02-23T20:10:05.473Z,26.17
2023-02-23T20:12:33.200Z,23.63
2023-02-23T20:15:00.335Z,25.03
2023-02-23T20:17:27.437Z,23.07
2023-02-23T20:19:54.535Z,23.93
2023-02-23T20:22:21.574Z,22.47
2023-02-23T20:24:49.405Z,22.90
2023-02-23T20:27:16.485Z,24.10
2023-02-23T20:29:44.126Z,23.97
2023-02-23T20:32:11.280Z,20.47
2023-02-23T20:34:39.211Z,25.33
2023-02-23T20:37:06.239Z,23.80
2023-02-23T20:39:33.369Z,27.80
2023-02-23T20:42:00.455Z,23.20
2023-02-23T20:44:29.087Z,25.10
2023-02-23T20:46:56.341Z,25.87
2023-02-23T20:49:25.121Z,22.47
2023-02-23T20:51:52.259Z,22.40
2023-02-23T20:54:19.754Z,24.07
2023-02-23T20:56:46.926Z,22.67
2023-02-23T20:59:15.516Z,25.00
2023-02-23T21:01:44.112Z,26.13
2023-02-23T21:04:12.977Z,23.93
2023-02-23T21:06:40.164Z,24.40
2023-02-23T21:09:12.601Z,23.47
2023-02-23T21:11:39.725Z,25.33
2023-02-23T21:14:08.357Z,23.27
2023-02-23T21:16:36.000Z,24.40
2023-02-23T21:19:06.000Z,24.40
2023-02-23T21:21:38.649Z,28.87
2023-02-23T21:24:05.731Z,23.77
2023-02-23T21:26:32.830Z,25.13
2023-02-23T21:28:59.977Z,26.30
2023-02-23T21:31:27.377Z,26.37
2023-02-23T21:33:54.567Z,24.50
2023-02-23T21:36:21.616Z,25.10
2023-02-23T21:38:48.724Z,25.43
2023-02-23T21:41:16.167Z,25.20
2023-02-23T21:43:44.749Z,28.33
2023-02-23T21:46:13.809Z,29.47
2023-02-23T21:48:41.081Z,25.30
2023-02-23T21:51:11.117Z,27.17
2023-02-23T21:53:39.079Z,26.00
2023-02-23T21:56:11.684Z,26.63
2023-02-23T21:58:46.562Z,25.87
2023-02-23T22:01:14.953Z,26.37
2023-02-23T22:03:44.816Z,25.33
2023-02-23T22:06:13.075Z,29.47
2023-02-23T22:08:40.482Z,26.17
2023-02-23T22:11:11.902Z,24.40
2023-02-23T22:13:38.944Z,25.00
2023-02-23T22:16:06.965Z,26.80
2023-02-23T22:18:34.146Z,25.50
2023-02-23T22:21:01.686Z,24.93
2023-02-23T22:23:28.821Z,23.00
2023-02-23T22:25:55.854Z,23.37
2023-02-23T22:28:22.908Z,23.00
2023-02-23T22:30:51.031Z,23.50
2023-02-23T22:33:19.693Z,23.60
2023-02-23T22:35:47.164Z,21.90
2023-02-23T22:38:14.410Z,22.60
2023-02-23T22:40:44.323Z,21.90
2023-02-23T22:43:13.044Z,22.57
2023-02-23T22:45:41.902Z,21.40
2023-02-23T22:48:09.910Z,23.07
2023-02-23T22:50:37.092Z,22.73
2023-02-23T22:53:04.763Z,21.90
2023-02-23T22:55:33.738Z,20.90
2023-02-23T22:58:00.874Z,21.70
2023-02-23T23:00:28.974Z,23.03
2023-02-23T23:02:56.037Z,21.53
2023-02-23T23:05:24.173Z,21.90
2023-02-23T23:07:51.259Z,20.80
2023-02-23T23:10:18.809Z,20.47
2023-02-23T23:12:46.559Z,23.43
2023-02-23T23:15:18.960Z,21.60
2023-02-23T23:17:49.957Z,20.60
2023-02-23T23:20:25.487Z,22.97
2023-02-23T23:22:53.395Z,23.07
2023-02-23T23:25:22.854Z,22.50
2023-02-23T23:27:53.878Z,23.30
2023-02-23T23:30:21.565Z,20.00
2023-02-23T23:32:48.743Z,21.27
2023-02-23T23:35:15.881Z,18.87
2023-02-23T23:37:42.941Z,18.57
2023-02-23T23:40:14.429Z,18.53
2023-02-23T23:42:48.814Z,21.08
2023-02-23T23:45:17.321Z,19.92
2023-02-23T23:47:45.051Z,22.87
2023-02-23T23:50:13.127Z,23.85
2023-02-23T23:52:43.919Z,22.87
2023-02-23T23:55:12.082Z,23.55
2023-02-23T23:57:39.661Z,23.67
